createdAt,value
2022-10-15T00:00:18.299Z,100145.50
2022-10-15T00:02:46.243Z,100143.66
2022-10-15T00:05:13.927Z,100137.31
2022-10-15T00:07:42.918Z,100139.16
2022-10-15T00:10:11.085Z,100133.63
2022-10-15T00:12:38.843Z,100121.78
2022-10-15T00:15:07.439Z,100133.28
2022-10-15T00:17:35.940Z,100129.63
2022-10-15T00:20:04.843Z,100127.59
2022-10-15T00:22:32.473Z,100123.09
2022-10-15T00:25:01.359Z,100119.44
2022-10-15T00:27:29.400Z,100126.63
2022-10-15T00:29:57.213Z,100126.44
2022-10-15T00:32:26.474Z,100129.09
2022-10-15T00:34:54.141Z,100131.59
2022-10-15T00:37:22.286Z,100132.44
2022-10-15T00:39:50.027Z,100123.59
2022-10-15T00:42:19.071Z,100135.94
2022-10-15T00:44:54.338Z,100134.78
2022-10-15T00:47:27.791Z,100135.63
2022-10-15T00:50:00.784Z,100132.75
2022-10-15T00:52:35.529Z,100125.75
2022-10-15T00:55:07.705Z,100128.25
2022-10-15T00:57:37.503Z,100121.88
2022-10-15T01:00:09.076Z,100126.41
2022-10-15T01:02:38.939Z,100119.22
2022-10-15T01:05:08.636Z,100129.75
2022-10-15T01:07:36.309Z,100126.06
2022-10-15T01:10:06.449Z,100123.41
2022-10-15T01:12:46.739Z,100114.38
2022-10-15T01:15:19.791Z,100112.69
2022-10-15T01:17:51.542Z,100110.84
2022-10-15T01:20:45.247Z,100108.19
2022-10-15T01:23:48.265Z,100108.50
2022-10-15T01:26:41.521Z,100111.38
2022-10-15T01:29:19.788Z,100113.38
2022-10-15T01:31:58.259Z,100110.88
2022-10-15T01:34:36.295Z,100111.22
2022-10-15T01:37:10.886Z,100113.06
2022-10-15T01:39:42.906Z,100113.41
2022-10-15T01:42:18.939Z,100113.56
2022-10-15T01:44:52.484Z,100113.94
2022-10-15T01:47:57.519Z,100113.44
2022-10-15T01:50:29.404Z,100115.44
2022-10-15T01:52:59.921Z,100110.63
2022-10-15T01:55:28.205Z,100115.28
2022-10-15T01:57:59.378Z,100112.97
2022-10-15T02:00:27.077Z,100112.31
2022-10-15T02:03:00.642Z,100114.28
2022-10-15T02:05:35.931Z,100105.81
2022-10-15T02:08:13.726Z,100107.66
2022-10-15T02:10:49.074Z,100114.81
2022-10-15T02:13:28.355Z,100107.66
2022-10-15T02:16:04.159Z,100105.13
2022-10-15T02:18:40.885Z,100105.28
2022-10-15T02:21:14.728Z,100107.97
2022-10-15T02:23:48.301Z,100098.28
2022-10-15T02:26:18.007Z,100099.31
2022-10-15T02:28:49.224Z,100097.63
2022-10-15T02:31:19.715Z,100100.31
2022-10-15T02:33:50.534Z,100107.63
2022-10-15T02:36:19.941Z,100099.63
2022-10-15T02:38:49.559Z,100104.13
2022-10-15T02:41:18.095Z,100100.63
2022-10-15T02:43:48.339Z,100099.81
2022-10-15T02:46:19.360Z,100109.66
2022-10-15T02:48:48.555Z,100102.47
2022-10-15T02:51:18.798Z,100097.97
2022-10-15T02:53:46.358Z,100110.50
2022-10-15T02:56:13.966Z,100111.50
2022-10-15T02:58:41.674Z,100108.81
2022-10-15T03:01:09.888Z,100108.13
2022-10-15T03:03:37.859Z,100108.13
2022-10-15T03:06:07.815Z,100106.47
2022-10-15T03:08:35.486Z,100095.13
2022-10-15T03:11:04.658Z,100103.16
2022-10-15T03:13:36.815Z,100106.84
2022-10-15T03:16:05.789Z,100098.13
2022-10-15T03:18:38.157Z,100100.66
2022-10-15T03:21:11.293Z,100093.78
2022-10-15T03:23:40.182Z,100095.59
2022-10-15T03:26:13.988Z,100094.78
2022-10-15T03:28:42.913Z,100086.09
2022-10-15T03:31:14.234Z,100093.28
2022-10-15T03:33:45.130Z,100085.41
2022-10-15T03:36:14.382Z,100089.09
2022-10-15T03:38:42.182Z,100086.59
2022-10-15T03:41:13.449Z,100087.44
2022-10-15T03:43:43.044Z,100082.28
2022-10-15T03:46:11.658Z,100072.59
2022-10-15T03:48:43.701Z,100087.63
2022-10-15T03:51:18.174Z,100084.25
2022-10-15T03:53:54.036Z,100082.44
2022-10-15T03:56:21.648Z,100084.25
2022-10-15T03:58:50.709Z,100083.44
2022-10-15T04:01:19.440Z,100079.94
2022-10-15T04:03:47.552Z,100084.44
2022-10-15T04:06:19.534Z,100083.44
2022-10-15T04:08:47.234Z,100073.94
2022-10-15T04:11:21.806Z,100076.59
2022-10-15T04:13:59.008Z,100082.94
2022-10-15T04:16:26.657Z,100082.13
2022-10-15T04:18:54.335Z,100079.44
2022-10-15T04:21:23.306Z,100083.97
2022-10-15T04:23:56.974Z,100076.91
2022-10-15T04:26:30.576Z,100076.09
2022-10-15T04:29:00.971Z,100068.09
2022-10-15T04:31:29.510Z,100076.25
2022-10-15T04:33:58.169Z,100081.59
2022-10-15T04:36:27.522Z,100079.94
2022-10-15T04:39:00.522Z,100067.41
2022-10-15T04:41:37.907Z,100069.25
2022-10-15T04:44:09.176Z,100065.75
2022-10-15T04:46:38.533Z,100077.44
2022-10-15T04:49:23.513Z,100068.75
2022-10-15T04:51:53.438Z,100074.28
2022-10-15T04:54:29.510Z,100078.78
2022-10-15T04:57:04.377Z,100072.78
2022-10-15T04:59:32.289Z,100072.94
2022-10-15T05:02:18.463Z,100072.09
2022-10-15T05:04:50.656Z,100072.09
2022-10-15T05:07:19.762Z,100075.59
2022-10-15T05:09:48.836Z,100084.44
2022-10-15T05:12:16.609Z,100082.78
2022-10-15T05:14:44.283Z,100086.28
2022-10-15T05:17:19.150Z,100087.09
2022-10-15T05:19:46.929Z,100099.47
2022-10-15T05:22:20.554Z,100096.81
2022-10-15T05:24:53.034Z,100094.97
2022-10-15T05:27:29.663Z,100094.13
2022-10-15T05:29:57.453Z,100093.97
2022-10-15T05:32:32.187Z,100092.97
2022-10-15T05:34:59.815Z,100088.44
2022-10-15T05:37:41.090Z,100085.59
2022-10-15T05:40:10.079Z,100093.47
2022-10-15T05:42:37.959Z,100100.28
2022-10-15T05:45:08.733Z,100091.47
2022-10-15T05:47:36.270Z,100096.63
2022-10-15T05:50:17.050Z,100095.63
2022-10-15T05:52:49.935Z,100090.28
2022-10-15T05:55:27.210Z,100101.63
2022-10-15T05:57:54.774Z,100101.47
2022-10-15T06:00:22.345Z,100106.81
2022-10-15T06:05:26.575Z,100100.47
2022-10-15T06:07:55.486Z,100107.31
2022-10-15T06:10:23.431Z,100102.81
2022-10-15T06:12:52.124Z,100101.81
2022-10-15T06:15:19.963Z,100102.44
2022-10-15T06:17:47.510Z,100095.13
2022-10-15T06:20:15.281Z,100101.13
2022-10-15T06:22:43.036Z,100095.59
2022-10-15T06:25:12.262Z,100095.47
2022-10-15T06:27:39.918Z,100089.13
2022-10-15T06:30:08.886Z,100099.47
2022-10-15T06:32:36.450Z,100098.63
2022-10-15T06:35:04.199Z,100100.13
2022-10-15T06:37:34.317Z,100093.81
2022-10-15T06:40:01.863Z,100096.28
2022-10-15T06:42:30.874Z,100090.97
2022-10-15T06:44:58.372Z,100099.81
2022-10-15T06:47:26.511Z,100108.47
2022-10-15T06:49:54.295Z,100118.31
2022-10-15T06:52:22.129Z,100112.81
2022-10-15T06:54:49.843Z,100122.34
2022-10-15T06:57:20.234Z,100113.31
2022-10-15T06:59:49.122Z,100121.16
2022-10-15T07:02:17.737Z,100120.00
2022-10-15T07:04:45.333Z,100122.16
2022-10-15T07:07:18.645Z,100123.66
2022-10-15T07:09:47.383Z,100122.63
2022-10-15T07:12:16.103Z,100123.28
2022-10-15T07:14:43.830Z,100129.31
2022-10-15T07:17:12.741Z,100126.47
2022-10-15T07:19:40.402Z,100128.97
2022-10-15T07:22:07.995Z,100133.97
2022-10-15T07:24:35.569Z,100145.50
2022-10-15T07:27:07.966Z,100145.31
2022-10-15T07:29:35.969Z,100148.50
2022-10-15T07:32:03.715Z,100142.81
2022-10-15T07:34:32.598Z,100138.28
2022-10-15T07:37:00.207Z,100140.44
2022-10-15T07:39:27.872Z,100142.81
2022-10-15T07:41:55.441Z,100137.09
2022-10-15T07:44:23.034Z,100144.78
2022-10-15T07:46:50.569Z,100144.44
2022-10-15T07:49:18.109Z,100143.25
2022-10-15T07:51:47.447Z,100143.75
2022-10-15T07:54:15.344Z,100133.53
2022-10-15T07:56:43.034Z,100134.88
2022-10-15T07:59:10.631Z,100139.84
2022-10-15T08:01:38.299Z,100137.69
2022-10-15T08:04:05.954Z,100133.34
2022-10-15T08:06:34.765Z,100133.63
2022-10-15T08:09:05.509Z,100112.91
2022-10-15T08:11:33.097Z,100116.72
2022-10-15T08:14:00.650Z,100123.38
2022-10-15T08:16:28.162Z,100122.03
2022-10-15T08:18:59.323Z,100128.72
2022-10-15T08:21:26.929Z,100123.00
2022-10-15T08:23:54.476Z,100118.31
2022-10-15T08:26:32.474Z,100106.91
2022-10-15T08:29:00.061Z,100115.41
2022-10-15T08:31:27.662Z,100107.06
2022-10-15T08:33:55.294Z,100110.03
2022-10-15T08:36:22.957Z,100118.53
2022-10-15T08:38:51.353Z,100120.03
2022-10-15T08:41:29.433Z,100123.00
2022-10-15T08:43:59.287Z,100128.84
2022-10-15T08:46:34.511Z,100119.78
2022-10-15T08:49:03.501Z,100122.31
2022-10-15T08:51:39.462Z,100117.41
2022-10-15T08:54:10.899Z,100106.34
2022-10-15T08:56:41.685Z,100107.66
2022-10-15T08:59:23.924Z,100105.47
2022-10-15T09:01:56.461Z,100105.75
2022-10-15T09:04:31.295Z,100099.00
2022-10-15T09:07:08.327Z,100099.31
2022-10-15T09:09:46.613Z,100103.47
2022-10-15T09:12:35.039Z,100111.63
2022-10-15T09:15:06.085Z,100117.28
2022-10-15T09:17:36.314Z,100113.88
2022-10-15T09:20:07.755Z,100115.72
2022-10-15T09:22:36.205Z,100123.38
2022-10-15T09:25:16.087Z,100116.84
2022-10-15T09:27:44.043Z,100119.88
2022-10-15T09:30:27.182Z,100120.69
2022-10-15T09:33:00.572Z,100124.41
2022-10-15T09:35:33.119Z,100125.22
2022-10-15T09:38:14.145Z,100123.38
2022-10-15T09:40:56.054Z,100127.38
2022-10-15T09:43:27.715Z,100120.66
2022-10-15T09:45:56.594Z,100122.66
2022-10-15T09:48:28.214Z,100121.63
2022-10-15T09:51:00.322Z,100118.59
2022-10-15T09:53:41.836Z,100105.84
2022-10-15T09:56:14.601Z,100092.81
2022-10-15T09:58:51.429Z,100096.19
2022-10-15T10:01:22.257Z,100085.72
2022-10-15T10:03:54.253Z,100069.91
2022-10-15T10:06:24.543Z,100061.16
2022-10-15T10:08:55.571Z,100063.28
2022-10-15T10:11:25.281Z,100062.19
2022-10-15T10:13:55.786Z,100055.03
2022-10-15T10:16:25.328Z,100064.19
2022-10-15T10:19:06.295Z,100065.28
2022-10-15T10:21:35.602Z,100072.03
2022-10-15T10:24:19.877Z,100065.03
2022-10-15T10:26:47.978Z,100073.56
2022-10-15T10:29:32.930Z,100065.78
2022-10-15T10:32:11.401Z,100058.44
2022-10-15T10:34:39.183Z,100064.47
2022-10-15T10:37:07.738Z,100064.25
2022-10-15T10:39:36.449Z,100062.03
2022-10-15T10:42:06.939Z,100054.97
2022-10-15T10:44:37.305Z,100051.94
2022-10-15T10:47:15.253Z,100043.47
2022-10-15T10:49:45.886Z,100036.72
2022-10-15T10:52:22.046Z,100032.00
2022-10-15T10:54:58.379Z,100030.38
2022-10-15T10:57:33.421Z,100019.25
2022-10-15T11:00:04.224Z,100020.72
2022-10-15T11:02:35.868Z,100016.44
2022-10-15T11:05:04.140Z,100019.13
2022-10-15T11:07:42.413Z,100014.78
2022-10-15T11:10:18.633Z,100011.72
2022-10-15T11:13:07.368Z,100019.66
2022-10-15T11:15:45.367Z,100011.59
2022-10-15T11:18:31.650Z,100007.88
2022-10-15T11:21:07.448Z,100011.41
2022-10-15T11:23:51.188Z,100007.09
2022-10-15T11:26:46.064Z,100004.25
2022-10-15T11:29:34.897Z,99994.75
2022-10-15T11:32:16.552Z,99995.59
2022-10-15T11:34:57.861Z,99992.50
2022-10-15T11:37:40.282Z,99990.06
2022-10-15T11:40:21.147Z,99992.81
2022-10-15T11:42:56.263Z,99980.81
2022-10-15T11:45:44.600Z,99987.69
2022-10-15T11:48:22.985Z,99999.06
2022-10-15T11:50:57.374Z,99987.47
2022-10-15T11:53:45.303Z,99983.97
2022-10-15T11:56:17.921Z,99975.47
2022-10-15T11:58:50.824Z,99984.38
2022-10-15T12:01:24.577Z,99980.03
2022-10-15T12:03:56.437Z,99978.41
2022-10-15T12:06:27.556Z,99985.66
2022-10-15T12:08:57.633Z,99982.34
2022-10-15T12:11:37.196Z,99975.47
2022-10-15T12:14:18.378Z,99976.50
2022-10-15T12:16:57.277Z,99972.75
2022-10-15T12:19:33.584Z,99977.50
2022-10-15T12:22:09.542Z,99980.19
2022-10-15T12:24:56.335Z,99977.72
2022-10-15T12:27:29.639Z,99972.72
2022-10-15T12:30:22.672Z,99974.19
2022-10-15T12:32:51.043Z,99968.75
2022-10-15T12:35:26.570Z,99961.94
2022-10-15T12:37:55.587Z,99956.75
2022-10-15T12:40:30.044Z,99952.22
2022-10-15T12:43:00.568Z,99952.59
2022-10-15T12:45:39.010Z,99945.19
2022-10-15T12:48:28.843Z,99941.72
2022-10-15T12:51:38.438Z,99939.59
2022-10-15T12:54:41.995Z,99938.56
2022-10-15T12:57:47.275Z,99935.69
2022-10-15T13:00:48.237Z,99934.69
2022-10-15T13:03:21.888Z,99934.69
2022-10-15T13:05:53.237Z,99929.31
2022-10-15T13:08:34.768Z,99917.31
2022-10-15T13:11:03.890Z,99922.69
2022-10-15T13:13:35.427Z,99910.09
2022-10-15T13:16:07.865Z,99917.94
2022-10-15T13:18:36.187Z,99904.72
2022-10-15T13:21:03.761Z,99909.69
2022-10-15T13:23:33.090Z,99911.97
2022-10-15T13:26:19.780Z,99923.34
2022-10-15T13:28:48.759Z,99922.72
2022-10-15T13:31:24.677Z,99918.81
2022-10-15T13:33:58.245Z,99926.28
2022-10-15T13:36:28.567Z,99934.53
2022-10-15T13:38:58.974Z,99928.94
2022-10-15T13:41:31.058Z,99922.34
2022-10-15T13:44:00.979Z,99931.41
2022-10-15T13:46:30.708Z,99923.19
2022-10-15T13:48:59.924Z,99920.28
2022-10-15T13:51:35.434Z,99914.31
2022-10-15T13:54:08.704Z,99910.00
2022-10-15T13:56:37.994Z,99913.09
2022-10-15T13:59:05.789Z,99910.66
2022-10-15T14:01:34.994Z,99912.94
2022-10-15T14:04:04.542Z,99909.63
2022-10-15T14:06:33.991Z,99914.22
2022-10-15T14:09:12.060Z,99920.03
2022-10-15T14:11:41.034Z,99912.78
2022-10-15T14:14:31.042Z,99908.69
2022-10-15T14:17:00.479Z,99911.97
2022-10-15T14:19:30.796Z,99911.97
2022-10-15T14:21:59.818Z,99916.31
2022-10-15T14:24:33.288Z,99917.97
2022-10-15T14:27:07.941Z,99913.25
2022-10-15T14:29:42.506Z,99922.75
2022-10-15T14:32:22.093Z,99911.81
2022-10-15T14:34:50.259Z,99909.75
2022-10-15T14:37:43.431Z,99911.19
2022-10-15T14:40:18.542Z,99912.44
2022-10-15T14:42:49.213Z,99914.91
2022-10-15T14:45:24.290Z,99919.25
2022-10-15T14:47:54.654Z,99916.19
2022-10-15T14:50:25.566Z,99919.69
2022-10-15T14:52:55.521Z,99930.06
2022-10-15T14:55:33.021Z,99925.50
2022-10-15T14:58:07.804Z,99925.94
2022-10-15T15:00:41.426Z,99930.28
2022-10-15T15:03:15.200Z,99930.94
2022-10-15T15:05:48.086Z,99930.13
2022-10-15T15:08:16.337Z,99937.31
2022-10-15T15:10:45.162Z,99930.94
2022-10-15T15:13:28.013Z,99929.91
2022-10-15T15:15:55.934Z,99931.56
2022-10-15T15:18:23.951Z,99931.56
2022-10-15T15:20:52.319Z,99933.41
2022-10-15T15:23:22.394Z,99935.06
2022-10-15T15:25:50.635Z,99932.38
2022-10-15T15:28:21.243Z,99931.56
2022-10-15T15:30:57.765Z,99935.91
2022-10-15T15:33:26.377Z,99925.13
2022-10-15T15:35:56.365Z,99924.31
2022-10-15T15:38:30.829Z,99937.75
2022-10-15T15:41:04.367Z,99941.28
2022-10-15T15:43:33.277Z,99934.03
2022-10-15T15:46:00.822Z,99936.72
2022-10-15T15:48:28.427Z,99945.84
2022-10-15T15:50:59.655Z,99950.38
2022-10-15T15:53:27.283Z,99936.31
2022-10-15T15:55:57.563Z,99942.53
2022-10-15T15:58:25.473Z,99936.50
2022-10-15T16:00:54.377Z,99948.31
2022-10-15T16:03:21.973Z,99943.97
2022-10-15T16:08:23.781Z,99945.81
2022-10-15T16:10:51.542Z,99952.41
2022-10-15T16:13:19.130Z,99956.31
2022-10-15T16:15:46.643Z,99966.47
2022-10-15T16:18:17.115Z,99970.38
2022-10-15T16:20:48.506Z,99975.97
2022-10-15T16:23:16.563Z,99979.09
2022-10-15T16:25:44.313Z,99980.91
2022-10-15T16:28:11.997Z,99974.06
2022-10-15T16:30:39.630Z,99964.34
2022-10-15T16:35:37.734Z,99964.94
2022-10-15T16:38:05.301Z,99974.25
2022-10-15T16:40:33.489Z,99976.28
2022-10-15T16:43:01.116Z,99980.22
2022-10-15T16:54:02.444Z,100011.41
2022-10-15T16:56:31.544Z,100021.69
2022-10-15T16:58:59.249Z,100022.75
2022-10-15T17:01:30.468Z,100031.00
2022-10-15T17:03:59.218Z,100030.34
2022-10-15T17:06:29.895Z,100045.03
2022-10-15T17:08:59.342Z,100051.44
2022-10-15T17:11:30.789Z,100046.06
2022-10-15T17:14:00.863Z,100065.25
2022-10-15T17:16:30.620Z,100066.69
2022-10-15T17:18:58.794Z,100070.78
2022-10-15T17:21:29.538Z,100079.63
2022-10-15T17:23:58.600Z,100079.38
2022-10-15T17:26:29.702Z,100078.09
2022-10-15T17:28:57.349Z,100092.75
2022-10-15T17:31:27.088Z,100098.72
2022-10-15T17:33:57.627Z,100106.50
2022-10-15T17:36:26.733Z,100113.94
2022-10-15T17:38:56.872Z,100123.41
2022-10-15T17:41:26.316Z,100131.84
2022-10-15T17:43:56.171Z,100136.56
2022-10-15T17:46:26.312Z,100144.16
2022-10-15T17:48:55.357Z,100158.63
2022-10-15T17:51:25.219Z,100149.06
2022-10-15T17:53:57.994Z,100164.56
2022-10-15T17:56:27.731Z,100177.72
2022-10-15T17:58:58.921Z,100189.84
2022-10-15T18:01:39.327Z,100194.31
2022-10-15T18:04:07.456Z,100209.69
2022-10-15T18:06:35.376Z,100213.50
2022-10-15T18:09:03.191Z,100207.41
2022-10-15T18:11:33.544Z,100211.81
2022-10-15T18:14:02.485Z,100208.03
2022-10-15T18:16:30.319Z,100206.75
2022-10-15T18:18:58.188Z,100216.56
2022-10-15T18:21:27.380Z,100227.16
2022-10-15T18:23:57.044Z,100234.28
2022-10-15T18:26:25.084Z,100229.47
2022-10-15T18:28:54.715Z,100233.53
2022-10-15T18:31:25.928Z,100235.94
2022-10-15T18:33:55.932Z,100238.13
2022-10-15T18:36:25.781Z,100251.22
2022-10-15T18:38:54.086Z,100254.44
2022-10-15T18:41:24.412Z,100255.00
2022-10-15T18:43:52.867Z,100253.66
2022-10-15T18:46:20.674Z,100264.78
2022-10-15T18:48:49.950Z,100260.13
2022-10-15T18:51:25.068Z,100277.56
2022-10-15T18:53:53.201Z,100274.59
2022-10-15T18:56:21.694Z,100277.44
2022-10-15T18:58:49.911Z,100271.13
2022-10-15T19:01:26.326Z,100273.31
2022-10-15T19:03:55.904Z,100274.88
2022-10-15T19:06:25.265Z,100273.53
2022-10-15T19:08:53.481Z,100269.38
2022-10-15T19:11:21.238Z,100282.47
2022-10-15T19:13:48.967Z,100275.78
2022-10-15T19:16:16.569Z,100282.53
2022-10-15T19:18:45.253Z,100280.38
2022-10-15T19:21:14.322Z,100282.72
2022-10-15T19:23:41.976Z,100290.31
2022-10-15T19:26:10.608Z,100288.13
2022-10-15T19:28:39.266Z,100287.81
2022-10-15T19:31:09.060Z,100282.97
2022-10-15T19:33:37.775Z,100288.84
2022-10-15T19:36:05.785Z,100286.72
2022-10-15T19:38:34.943Z,100288.22
2022-10-15T19:41:04.680Z,100294.06
2022-10-15T19:43:32.316Z,100291.25
2022-10-15T19:46:04.285Z,100291.75
2022-10-15T19:48:32.401Z,100298.44
2022-10-15T19:51:02.301Z,100299.81
2022-10-15T19:53:30.209Z,100303.00
2022-10-15T19:56:00.920Z,100309.69
2022-10-15T19:58:28.535Z,100319.91
2022-10-15T20:00:56.379Z,100315.88
2022-10-15T20:03:25.997Z,100314.72
2022-10-15T20:05:53.706Z,100314.38
2022-10-15T20:08:21.501Z,100321.91
2022-10-15T20:10:52.002Z,100323.44
2022-10-15T20:13:23.475Z,100323.09
2022-10-15T20:15:53.037Z,100321.56
2022-10-15T20:18:22.702Z,100315.88
2022-10-15T20:20:50.667Z,100320.94
2022-10-15T20:23:18.690Z,100321.25
2022-10-15T20:25:47.140Z,100325.25
2022-10-15T20:28:18.126Z,100322.22
2022-10-15T20:30:49.528Z,100320.09
2022-10-15T20:33:17.163Z,100326.56
2022-10-15T20:35:44.984Z,100332.41
2022-10-15T20:38:12.606Z,100322.25
2022-10-15T20:40:41.196Z,100330.56
2022-10-15T20:43:08.965Z,100338.09
2022-10-15T20:45:43.576Z,100333.91
2022-10-15T20:48:19.638Z,100342.25
2022-10-15T20:50:49.224Z,100350.75
2022-10-15T20:53:18.008Z,100342.91
2022-10-15T20:55:45.684Z,100346.88
2022-10-15T21:00:43.115Z,100352.69
2022-10-15T21:03:10.713Z,100353.03
2022-10-15T21:05:39.756Z,100358.50
2022-10-15T21:08:07.380Z,100346.50
2022-10-15T21:10:35.011Z,100351.13
2022-10-15T21:13:02.815Z,100355.97
2022-10-15T21:15:31.034Z,100358.97
2022-10-15T21:17:59.007Z,100366.31
2022-10-15T21:20:27.424Z,100378.13
2022-10-15T21:22:56.369Z,100377.63
2022-10-15T21:25:24.120Z,100388.63
2022-10-15T21:27:51.899Z,100381.59
2022-10-15T21:30:19.892Z,100393.44
2022-10-15T21:32:47.466Z,100387.59
2022-10-15T21:35:15.252Z,100384.41
2022-10-15T21:37:42.844Z,100398.06
2022-10-15T21:40:13.224Z,100401.03
2022-10-15T21:42:41.079Z,100407.53
2022-10-15T21:45:10.285Z,100410.53
2022-10-15T21:47:37.833Z,100406.03
2022-10-15T21:50:06.397Z,100406.03
2022-10-15T21:52:34.102Z,100405.19
2022-10-15T21:55:01.720Z,100412.34
2022-10-15T21:57:30.624Z,100410.66
2022-10-15T21:59:58.431Z,100408.00
2022-10-15T22:02:26.103Z,100423.00
2022-10-15T22:04:53.675Z,100425.69
2022-10-15T22:07:21.364Z,100430.06
2022-10-15T22:09:49.180Z,100432.72
2022-10-15T22:12:19.048Z,100436.91
2022-10-15T22:14:50.294Z,100426.22
2022-10-15T22:17:18.034Z,100429.56
2022-10-15T22:19:45.655Z,100434.91
2022-10-15T22:22:13.231Z,100437.25
2022-10-15T22:24:41.404Z,100427.25
2022-10-15T22:27:09.191Z,100434.97
2022-10-15T22:29:36.916Z,100432.28
2022-10-15T22:32:06.167Z,100425.31
2022-10-15T22:34:33.711Z,100417.97
2022-10-15T22:37:01.464Z,100418.69
2022-10-15T22:39:29.187Z,100424.03
2022-10-15T22:41:56.747Z,100435.53
2022-10-15T22:44:24.436Z,100433.69
2022-10-15T22:46:51.988Z,100437.19
2022-10-15T22:49:22.303Z,100441.53
2022-10-15T22:51:51.128Z,100444.22
2022-10-15T22:54:20.529Z,100441.53
2022-10-15T22:56:48.166Z,100444.88
2022-10-15T22:59:15.923Z,100437.88
2022-10-15T23:01:45.358Z,100437.88
2022-10-15T23:04:15.855Z,100447.56
2022-10-15T23:06:45.015Z,100444.22
2022-10-15T23:09:17.275Z,100443.22
2022-10-15T23:11:45.867Z,100441.53
2022-10-15T23:14:15.848Z,100455.72
2022-10-15T23:16:45.302Z,100457.56
2022-10-15T23:19:16.125Z,100459.22
2022-10-15T23:21:47.172Z,100451.38
2022-10-15T23:24:16.507Z,100452.22
2022-10-15T23:26:44.183Z,100446.22
2022-10-15T23:29:15.500Z,100444.53
2022-10-15T23:31:43.141Z,100438.34
2022-10-15T23:34:14.388Z,100443.00
2022-10-15T23:36:42.910Z,100452.03
2022-10-15T23:39:15.195Z,100454.16
2022-10-15T23:41:43.489Z,100454.16
2022-10-15T23:44:11.833Z,100449.81
2022-10-15T23:46:40.327Z,100451.81
2022-10-15T23:49:08.662Z,100460.81
2022-10-15T23:51:36.700Z,100460.00
2022-10-15T23:54:10.826Z,100461.97
2022-10-15T23:56:39.740Z,100455.94
2022-10-15T23:59:07.592Z,100456.78
